createdAt,value
2023-05-05T00:02:34.436Z,13.83
2023-05-05T00:05:36.980Z,13.74
2023-05-05T00:08:40.106Z,13.71
2023-05-05T00:11:42.473Z,13.67
2023-05-05T00:14:44.854Z,13.63
2023-05-05T00:17:47.531Z,13.55
2023-05-05T00:20:50.117Z,13.54
2023-05-05T00:23:52.540Z,13.46
2023-05-05T00:26:54.941Z,13.46
2023-05-05T00:29:57.655Z,13.29
2023-05-05T00:33:00.333Z,13.37
2023-05-05T00:36:03.545Z,13.31
2023-05-05T00:39:06.244Z,13.18
2023-05-05T00:42:09.520Z,13.09
2023-05-05T00:45:14.336Z,12.97
2023-05-05T00:48:17.827Z,13.02
2023-05-05T00:51:26.962Z,13.01
2023-05-05T00:54:29.808Z,12.94
2023-05-05T00:57:33.236Z,12.76
2023-05-05T01:00:36.732Z,12.88
2023-05-05T01:03:41.508Z,12.72
2023-05-05T01:07:09.104Z,12.76
2023-05-05T01:10:23.914Z,12.71
2023-05-05T01:13:48.469Z,12.66
2023-05-05T01:16:59.169Z,12.63
2023-05-05T01:20:12.549Z,12.60
2023-05-05T01:23:43.672Z,12.43
2023-05-05T01:26:59.566Z,12.39
2023-05-05T01:30:42.509Z,12.37
2023-05-05T01:33:50.356Z,12.40
2023-05-05T01:37:04.753Z,12.34
2023-05-05T01:40:10.613Z,12.06
2023-05-05T01:43:17.790Z,11.98
2023-05-05T01:46:23.465Z,11.99
2023-05-05T01:49:27.240Z,11.85
2023-05-05T01:52:30.055Z,11.94
2023-05-05T01:55:33.679Z,11.84
2023-05-05T01:58:38.187Z,11.72
2023-05-05T02:01:44.771Z,11.57
2023-05-05T02:04:49.347Z,11.56
2023-05-05T02:07:57.007Z,11.39
2023-05-05T02:11:00.846Z,11.35
2023-05-05T02:14:04.862Z,11.37
2023-05-05T02:17:08.966Z,11.20
2023-05-05T02:20:14.052Z,11.25
2023-05-05T02:23:16.752Z,11.10
2023-05-05T02:26:23.038Z,11.12
2023-05-05T02:29:33.202Z,11.12
2023-05-05T02:32:53.670Z,10.94
2023-05-05T02:35:58.500Z,10.96
2023-05-05T02:39:07.352Z,10.79
2023-05-05T02:42:19.662Z,10.84
2023-05-05T02:45:26.975Z,10.71
2023-05-05T02:48:29.827Z,10.84
2023-05-05T02:51:36.204Z,10.82
2023-05-05T02:54:43.429Z,10.65
2023-05-05T02:58:04.837Z,10.32
2023-05-05T03:01:38.679Z,10.51
2023-05-05T03:04:47.099Z,10.53
2023-05-05T03:08:14.079Z,10.33
2023-05-05T03:11:45.099Z,10.44
2023-05-05T03:14:51.884Z,10.36
2023-05-05T03:17:56.640Z,10.32
2023-05-05T03:21:07.914Z,10.23
2023-05-05T03:24:19.791Z,10.23
2023-05-05T03:27:30.933Z,10.13
2023-05-05T03:30:38.166Z,10.15
2023-05-05T03:33:41.414Z,10.29
2023-05-05T03:36:43.888Z,10.20
2023-05-05T03:39:48.887Z,10.30
2023-05-05T03:42:51.777Z,10.26
2023-05-05T03:45:54.558Z,10.18
2023-05-05T03:48:57.714Z,10.33
2023-05-05T03:52:02.367Z,10.44
2023-05-05T03:55:05.598Z,10.40
2023-05-05T03:58:08.182Z,10.53
2023-05-05T04:01:10.977Z,10.63
2023-05-05T04:04:13.704Z,10.75
2023-05-05T04:07:16.713Z,10.53
2023-05-05T04:10:19.671Z,10.71
2023-05-05T04:13:22.136Z,10.60
2023-05-05T04:16:24.790Z,10.64
2023-05-05T04:19:27.738Z,10.79
2023-05-05T04:22:30.332Z,10.77
2023-05-05T04:25:33.024Z,10.77
2023-05-05T04:28:36.029Z,10.85
2023-05-05T04:31:38.744Z,10.87
2023-05-05T04:34:41.640Z,10.86
2023-05-05T04:37:44.216Z,11.03
2023-05-05T04:40:46.929Z,11.14
2023-05-05T04:43:49.864Z,11.15
2023-05-05T04:46:52.485Z,11.20
2023-05-05T04:49:56.134Z,11.15
2023-05-05T04:52:58.862Z,11.18
2023-05-05T04:56:01.754Z,11.29
2023-05-05T04:59:04.877Z,11.23
2023-05-05T05:02:07.522Z,11.35
2023-05-05T05:05:10.642Z,11.34
2023-05-05T05:08:15.548Z,11.52
2023-05-05T05:11:18.170Z,11.62
2023-05-05T05:14:20.910Z,11.76
2023-05-05T05:17:25.057Z,11.84
2023-05-05T05:20:30.742Z,11.92
2023-05-05T05:23:33.405Z,12.01
2023-05-05T05:26:36.200Z,12.14
2023-05-05T05:29:39.675Z,12.11
2023-05-05T05:32:42.741Z,12.21
2023-05-05T05:35:46.098Z,12.53
2023-05-05T05:38:49.298Z,12.61
2023-05-05T05:41:52.119Z,12.70
2023-05-05T05:44:54.895Z,12.88
2023-05-05T05:47:57.359Z,13.11
2023-05-05T05:51:00.187Z,13.25
2023-05-05T05:54:03.017Z,13.42
2023-05-05T05:57:07.511Z,13.44
2023-05-05T06:00:11.174Z,13.49
2023-05-05T06:03:19.888Z,13.67
2023-05-05T06:06:22.748Z,13.82
2023-05-05T06:09:25.969Z,13.82
2023-05-05T06:12:30.501Z,13.87
2023-05-05T06:15:33.551Z,14.02
2023-05-05T06:18:38.921Z,14.15
2023-05-05T06:21:41.458Z,14.37
2023-05-05T06:24:45.167Z,14.31
2023-05-05T06:27:48.154Z,14.48
2023-05-05T06:30:50.871Z,14.61
2023-05-05T06:33:53.718Z,14.68
2023-05-05T06:36:56.173Z,14.83
2023-05-05T06:39:59.020Z,14.93
2023-05-05T06:43:01.929Z,15.05
2023-05-05T06:46:10.927Z,15.14
2023-05-05T06:49:13.655Z,15.36
2023-05-05T06:52:16.455Z,15.54
2023-05-05T06:55:19.137Z,15.57
2023-05-05T06:58:21.790Z,15.85
2023-05-05T07:01:24.229Z,15.93
2023-05-05T07:04:27.149Z,15.86
2023-05-05T07:07:29.640Z,16.05
2023-05-05T07:10:32.946Z,16.18
2023-05-05T07:13:36.471Z,16.31
2023-05-05T07:16:39.327Z,16.45
2023-05-05T07:19:41.927Z,16.56
2023-05-05T07:22:44.631Z,16.54
2023-05-05T07:25:47.287Z,16.38
2023-05-05T07:28:52.123Z,16.57
2023-05-05T07:31:55.015Z,16.53
2023-05-05T07:34:57.727Z,16.71
2023-05-05T07:38:00.867Z,16.84
2023-05-05T07:41:03.763Z,16.80
2023-05-05T07:44:07.095Z,16.75
2023-05-05T07:47:10.368Z,16.73
2023-05-05T07:50:13.298Z,17.09
2023-05-05T07:53:16.041Z,17.19
2023-05-05T07:56:19.314Z,17.32
2023-05-05T07:59:23.043Z,17.59
2023-05-05T08:02:25.774Z,17.45
2023-05-05T08:05:28.523Z,17.71
2023-05-05T08:08:31.540Z,17.63
2023-05-05T08:11:34.091Z,17.82
2023-05-05T08:14:36.647Z,17.47
2023-05-05T08:17:46.847Z,17.90
2023-05-05T08:20:49.359Z,18.09
2023-05-05T08:23:51.774Z,18.23
2023-05-05T08:26:55.641Z,18.34
2023-05-05T08:29:58.676Z,18.21
2023-05-05T08:33:01.575Z,18.31
2023-05-05T08:36:05.424Z,18.29
2023-05-05T08:39:07.905Z,18.15
2023-05-05T08:42:11.125Z,18.20
2023-05-05T08:45:13.763Z,18.59
2023-05-05T08:48:20.395Z,18.89
2023-05-05T08:51:28.338Z,19.08
2023-05-05T08:54:35.297Z,18.91
2023-05-05T08:57:58.386Z,19.05
2023-05-05T09:01:01.808Z,19.09
2023-05-05T09:04:05.214Z,18.93
2023-05-05T09:07:09.043Z,19.30
2023-05-05T09:10:12.120Z,19.37
2023-05-05T09:13:17.012Z,19.33
2023-05-05T09:16:19.686Z,19.43
2023-05-05T09:19:22.186Z,19.45
2023-05-05T09:22:34.650Z,19.86
2023-05-05T09:25:38.269Z,19.94
2023-05-05T09:28:51.712Z,19.93
2023-05-05T09:32:08.668Z,20.25
2023-05-05T09:35:11.834Z,20.45
2023-05-05T09:38:15.136Z,20.65
2023-05-05T09:41:37.129Z,20.86
2023-05-05T09:44:40.790Z,21.02
2023-05-05T09:47:46.390Z,21.08
2023-05-05T09:50:48.939Z,21.27
2023-05-05T09:53:51.430Z,21.00
2023-05-05T09:56:57.565Z,20.83
2023-05-05T10:00:02.107Z,19.88
2023-05-05T10:03:09.606Z,19.74
2023-05-05T10:06:12.101Z,20.28
2023-05-05T10:09:15.501Z,20.72
2023-05-05T10:12:18.369Z,20.78
2023-05-05T10:15:22.319Z,20.47
2023-05-05T10:18:32.013Z,20.88
2023-05-05T10:21:39.813Z,20.72
2023-05-05T10:24:50.868Z,21.68
2023-05-05T10:27:56.783Z,22.25
2023-05-05T10:31:02.173Z,22.15
2023-05-05T10:34:09.059Z,23.34
2023-05-05T10:37:11.727Z,24.52
2023-05-05T10:40:15.357Z,25.68
2023-05-05T10:43:18.256Z,27.05
2023-05-05T10:46:22.335Z,27.11
2023-05-05T10:49:36.963Z,27.92
2023-05-05T10:52:48.539Z,28.62
2023-05-05T10:56:03.053Z,30.01
2023-05-05T10:59:37.522Z,29.87
2023-05-05T11:02:40.470Z,31.40
2023-05-05T11:06:09.549Z,31.26
2023-05-05T11:09:27.971Z,31.28
2023-05-05T11:12:32.502Z,31.89
2023-05-05T11:15:37.815Z,31.12
2023-05-05T11:18:44.675Z,31.94
2023-05-05T11:22:02.307Z,33.86
2023-05-05T11:25:42.184Z,33.12
2023-05-05T11:29:04.948Z,31.71
2023-05-05T11:32:12.431Z,32.53
2023-05-05T11:35:15.591Z,32.11
2023-05-05T11:38:19.685Z,31.83
2023-05-05T11:41:44.089Z,30.53
2023-05-05T11:44:46.639Z,33.46
2023-05-05T11:47:49.110Z,33.53
2023-05-05T11:50:51.890Z,31.74
2023-05-05T11:53:54.487Z,33.57
2023-05-05T11:57:00.981Z,33.85
2023-05-05T12:00:08.511Z,31.16
2023-05-05T12:03:11.759Z,34.47
2023-05-05T12:06:14.379Z,33.62
2023-05-05T12:09:18.335Z,34.28
2023-05-05T12:12:21.836Z,36.26
2023-05-05T12:15:33.568Z,37.02
2023-05-05T12:18:36.629Z,36.95
2023-05-05T12:21:39.352Z,36.18
2023-05-05T12:24:41.867Z,37.24
2023-05-05T12:27:52.051Z,38.25
2023-05-05T12:30:59.072Z,37.47
2023-05-05T12:34:03.897Z,34.06
2023-05-05T12:37:06.890Z,34.38
2023-05-05T12:40:42.340Z,33.96
2023-05-05T12:43:44.841Z,35.10
2023-05-05T12:46:48.646Z,36.68
2023-05-05T12:49:52.138Z,34.99
2023-05-05T12:52:54.602Z,34.49
2023-05-05T12:55:57.094Z,35.06
2023-05-05T12:59:01.636Z,35.40
2023-05-05T13:02:06.006Z,33.07
2023-05-05T13:05:09.161Z,33.71
2023-05-05T13:08:11.839Z,34.41
2023-05-05T13:11:14.335Z,34.20
2023-05-05T13:14:16.778Z,32.30
2023-05-05T13:17:19.676Z,30.82
2023-05-05T13:20:22.094Z,31.00
2023-05-05T13:23:25.875Z,31.88
2023-05-05T13:26:28.714Z,32.80
2023-05-05T13:29:31.940Z,33.77
2023-05-05T13:32:34.471Z,35.87
2023-05-05T13:35:37.055Z,35.06
2023-05-05T13:38:39.784Z,37.35
2023-05-05T13:41:42.347Z,36.20
2023-05-05T13:44:44.847Z,35.33
2023-05-05T13:47:48.105Z,36.64
2023-05-05T13:50:50.988Z,36.62
2023-05-05T13:53:54.005Z,37.90
2023-05-05T13:56:56.484Z,37.28
2023-05-05T13:59:58.953Z,38.99
2023-05-05T14:03:01.852Z,39.01
2023-05-05T14:06:04.609Z,38.64
2023-05-05T14:09:08.038Z,38.04
2023-05-05T14:12:10.683Z,37.47
2023-05-05T14:15:13.649Z,36.63
2023-05-05T14:18:16.633Z,37.47
2023-05-05T14:21:19.223Z,38.06
2023-05-05T14:24:21.645Z,38.47
2023-05-05T14:27:24.149Z,37.77
2023-05-05T14:30:26.673Z,34.99
2023-05-05T14:33:29.334Z,35.06
2023-05-05T14:36:31.883Z,36.97
2023-05-05T14:39:34.406Z,38.27
2023-05-05T14:42:37.809Z,37.80
2023-05-05T14:45:40.538Z,37.52
2023-05-05T14:48:43.562Z,38.05
2023-05-05T14:51:46.357Z,35.40
2023-05-05T14:54:49.511Z,35.64
2023-05-05T14:57:52.286Z,37.24
2023-05-05T15:00:55.307Z,38.13
2023-05-05T15:03:58.647Z,37.37
2023-05-05T15:07:01.594Z,37.89
2023-05-05T15:10:04.879Z,38.74
2023-05-05T15:13:07.743Z,37.73
2023-05-05T15:16:10.743Z,36.12
2023-05-05T15:19:13.200Z,36.85
2023-05-05T15:22:15.829Z,34.98
2023-05-05T15:25:19.361Z,34.51
2023-05-05T15:28:21.851Z,34.85
2023-05-05T15:31:24.834Z,34.93
2023-05-05T15:34:27.348Z,34.74
2023-05-05T15:37:29.925Z,35.37
2023-05-05T15:40:32.638Z,34.06
2023-05-05T15:43:36.108Z,34.20
2023-05-05T15:46:39.292Z,34.25
2023-05-05T15:49:41.988Z,34.43
2023-05-05T15:52:44.529Z,35.01
2023-05-05T15:55:47.218Z,35.79
2023-05-05T15:58:51.340Z,34.50
2023-05-05T16:02:08.831Z,35.18
2023-05-05T16:05:24.816Z,35.62
2023-05-05T16:08:27.743Z,35.13
2023-05-05T16:11:30.938Z,35.55
2023-05-05T16:14:33.425Z,35.80
2023-05-05T16:17:36.015Z,34.85
2023-05-05T16:20:38.582Z,34.51
2023-05-05T16:23:41.416Z,34.00
2023-05-05T16:26:44.229Z,34.00
2023-05-05T16:29:46.928Z,33.66
2023-05-05T16:32:51.733Z,33.45
2023-05-05T16:35:54.330Z,33.58
2023-05-05T16:38:57.431Z,32.95
2023-05-05T16:42:06.949Z,32.20
2023-05-05T16:45:10.519Z,32.08
2023-05-05T16:48:14.688Z,31.20
2023-05-05T16:51:17.237Z,31.23
2023-05-05T16:54:20.409Z,30.83
2023-05-05T16:57:23.243Z,30.58
2023-05-05T17:00:25.722Z,30.71
2023-05-05T17:03:28.367Z,30.32
2023-05-05T17:06:33.623Z,30.35
2023-05-05T17:09:36.118Z,30.13
2023-05-05T17:12:38.815Z,29.46
2023-05-05T17:15:41.768Z,29.05
2023-05-05T17:18:44.289Z,28.02
2023-05-05T17:21:46.835Z,27.92
2023-05-05T17:24:49.490Z,27.71
2023-05-05T17:27:52.752Z,27.26
2023-05-05T17:30:55.382Z,26.06
2023-05-05T17:33:57.889Z,25.36
2023-05-05T17:37:00.509Z,25.04
2023-05-05T17:40:03.773Z,24.77
2023-05-05T17:43:06.825Z,24.21
2023-05-05T17:46:09.379Z,23.86
2023-05-05T17:49:12.503Z,23.55
2023-05-05T17:52:15.369Z,23.21
2023-05-05T17:55:18.130Z,23.12
2023-05-05T17:58:20.549Z,22.88
2023-05-05T18:01:24.823Z,22.58
2023-05-05T18:04:27.443Z,22.34
2023-05-05T18:07:30.014Z,22.11
2023-05-05T18:10:32.521Z,22.04
2023-05-05T18:13:35.211Z,22.03
2023-05-05T18:16:37.713Z,21.74
2023-05-05T18:19:45.660Z,21.61
2023-05-05T18:22:50.069Z,21.62
2023-05-05T18:25:52.642Z,21.47
2023-05-05T18:28:55.185Z,21.29
2023-05-05T18:31:57.694Z,21.19
2023-05-05T18:35:00.175Z,21.02
2023-05-05T18:38:03.728Z,20.73
2023-05-05T18:41:06.716Z,20.62
2023-05-05T18:44:10.525Z,20.24
2023-05-05T18:47:12.968Z,19.87
2023-05-05T18:50:15.729Z,19.98
2023-05-05T18:53:18.226Z,19.83
2023-05-05T18:56:21.667Z,19.59
2023-05-05T18:59:24.450Z,19.67
2023-05-05T19:02:27.396Z,19.53
2023-05-05T19:05:29.959Z,19.41
2023-05-05T19:08:32.738Z,19.33
2023-05-05T19:11:35.365Z,19.21
2023-05-05T19:14:37.845Z,19.15
2023-05-05T19:17:41.076Z,18.88
2023-05-05T19:20:43.705Z,18.91
2023-05-05T19:23:46.251Z,18.75
2023-05-05T19:26:48.893Z,18.76
2023-05-05T19:29:52.707Z,18.47
2023-05-05T19:32:55.913Z,18.41
2023-05-05T19:35:58.775Z,18.19
2023-05-05T19:39:02.380Z,18.12
2023-05-05T19:42:05.273Z,18.17
2023-05-05T19:45:08.143Z,17.94
2023-05-05T19:48:11.085Z,17.75
2023-05-05T19:51:13.754Z,17.78
2023-05-05T19:54:16.591Z,17.59
2023-05-05T19:57:19.073Z,17.52
2023-05-05T20:00:21.692Z,17.41
2023-05-05T20:03:24.399Z,17.39
2023-05-05T20:06:27.174Z,17.23
2023-05-05T20:09:30.210Z,17.23
2023-05-05T20:12:32.676Z,17.10
2023-05-05T20:15:35.286Z,16.96
2023-05-05T20:18:38.457Z,16.86
2023-05-05T20:21:41.226Z,16.82
2023-05-05T20:24:43.668Z,16.65
2023-05-05T20:27:46.443Z,16.67
2023-05-05T20:30:49.218Z,16.54
2023-05-05T20:33:52.307Z,16.48
2023-05-05T20:36:54.792Z,16.38
2023-05-05T20:39:58.283Z,16.28
2023-05-05T20:43:00.796Z,16.22
2023-05-05T20:46:03.335Z,16.17
2023-05-05T20:49:06.246Z,16.06
2023-05-05T20:52:08.790Z,16.00
2023-05-05T20:55:11.321Z,15.90
2023-05-05T20:58:13.776Z,15.81
2023-05-05T21:01:16.382Z,15.74
2023-05-05T21:04:19.049Z,15.69
2023-05-05T21:07:21.543Z,15.66
2023-05-05T21:10:24.104Z,15.46
2023-05-05T21:13:26.562Z,15.51
2023-05-05T21:16:29.015Z,15.45
2023-05-05T21:19:31.764Z,15.42
2023-05-05T21:22:34.288Z,15.31
2023-05-05T21:25:37.554Z,15.13
2023-05-05T21:28:40.023Z,15.10
2023-05-05T21:31:42.530Z,15.02
2023-05-05T21:34:45.610Z,15.07
2023-05-05T21:37:48.910Z,15.01
2023-05-05T21:40:57.461Z,14.96
2023-05-05T21:44:00.235Z,14.92
2023-05-05T21:47:02.716Z,14.98
2023-05-05T21:50:05.582Z,14.79
2023-05-05T21:53:08.018Z,14.48
2023-05-05T21:56:10.528Z,14.63
2023-05-05T21:59:14.336Z,14.54
2023-05-05T22:02:17.914Z,14.50
2023-05-05T22:05:20.764Z,14.42
2023-05-05T22:08:23.263Z,14.46
2023-05-05T22:11:25.764Z,14.34
2023-05-05T22:14:28.237Z,14.27
2023-05-05T22:17:30.721Z,14.14
2023-05-05T22:20:33.337Z,14.13
2023-05-05T22:23:37.181Z,14.06
2023-05-05T22:26:43.428Z,13.99
2023-05-05T22:29:46.685Z,13.92
2023-05-05T22:32:49.181Z,13.92
2023-05-05T22:35:52.069Z,13.83
2023-05-05T22:38:54.972Z,13.68
2023-05-05T22:41:58.093Z,13.62
2023-05-05T22:45:01.129Z,13.69
2023-05-05T22:48:03.818Z,13.71
2023-05-05T22:51:06.548Z,13.57
2023-05-05T22:54:09.103Z,13.49
2023-05-05T22:57:11.941Z,13.52
2023-05-05T23:00:14.655Z,13.44
2023-05-05T23:03:17.300Z,13.28
2023-05-05T23:06:20.747Z,13.38
2023-05-05T23:09:23.366Z,13.27
2023-05-05T23:12:26.179Z,13.28
2023-05-05T23:15:28.878Z,13.18
2023-05-05T23:18:31.634Z,13.23
2023-05-05T23:21:41.819Z,13.12
2023-05-05T23:24:44.693Z,13.21
2023-05-05T23:27:47.987Z,13.11
2023-05-05T23:30:50.585Z,12.89
2023-05-05T23:33:53.148Z,12.61
2023-05-05T23:36:55.966Z,12.81
2023-05-05T23:39:58.556Z,12.87
2023-05-05T23:43:01.133Z,12.90
2023-05-05T23:46:03.780Z,12.71
2023-05-05T23:49:06.509Z,12.61
2023-05-05T23:52:09.018Z,12.55
2023-05-05T23:55:11.774Z,12.45
2023-05-05T23:58:15.288Z,12.51
